Airport Name : Ilorin

Other Name : Ilorin

ICAO : DNIL

IATA : ILR

FAA :

Latitude : 8.440211

Longitude : 4.493919

Country : Nigeria

Local Date and Time : 21 Jul 2024 08:31

 

TAF (Terminal Aerodrome Forecast)

TAF DNIL 210500Z 2106/2212 VRB02KT 9999 SCT009 BECMG 2108/2110 21010KT BKN011 TEMPO 2116/2122 14010KT 5000 -TSRA BKN008 FEW018CB BECMG 2122/2124 VRB02KT FEW008 BECMG 2208/2211 23010KT BKN011

 

METAR (METeorological Aerodrome Report)

DNIL 210700Z 00000KT 9999 BKN010 23/22 Q1016

DNIL 210600Z 00000KT 9999 BKN010 23/22 Q1015

DNIL 210500Z 21005KT 9999 SCT010 23/22 Q1015

DNIL 210400Z 19012KT 9999 SCT009 23/22 Q1014